Home > Products > Valid Products > TAF

000
FTUS45 KREV 101120
TAFRNO
TAF
KRNO 101120Z 1012/1112 VRB04KT P6SM SCT250=



000
FTUS45 KREV 100520
TAFRNO
TAF
KRNO 100520Z 1006/1106 VRB04KT P6SM BKN250=



000
FTUS45 KREV 092342
TAFRNO
TAF
KRNO 092342Z 1000/1024 VRB04KT P6SM BKN250=



000
FTUS45 KREV 091720
TAFRNO
TAF
KRNO 091720Z 0918/1018 VRB03KT P6SM SKC
     FM092100 14006KT P6SM SKC
     FM100200 VRB03KT P6SM SKC=



000
FTUS45 KREV 091720
TAFRNO
TAF
KRNO 091720Z 0918/1018 VRB03KT P6SM SKC
     FM092100 14006KT P6SM SKC
     FM100200 VRB03KT P6SM SKC=



000
FTUS45 KREV 091720
TAFRNO
TAF
KRNO 091720Z 0918/1018 VRB03KT P6SM SKC
     FM092100 14006KT P6SM SKC
     FM100200 VRB03KT P6SM SKC=



000
FTUS45 KREV 091120
TAFRNO
TAF
KRNO 091120Z 0912/1012 VRB03KT P6SM SKC
     FM092100 14006KT P6SM SKC
     FM100200 VRB03KT P6SM SKC=



000
FTUS45 KREV 090520
TAFRNO
TAF
KRNO 090520Z 0906/1006 VRB03KT P6SM SKC
     FM092100 14006KT P6SM SKC=



000
FTUS45 KREV 090520
TAFRNO
TAF
KRNO 090520Z 0906/1006 VRB03KT P6SM SKC
     FM092100 14006KT P6SM SKC=



000
FTUS45 KREV 090520
TAFRNO
TAF
KRNO 090520Z 0906/1006 VRB03KT P6SM SKC
     FM092100 14006KT P6SM SKC=



000
FTUS45 KREV 082320
TAFRNO
TAF
KRNO 082320Z 0900/0924 09008KT P6SM SKC
     FM090200 VRB03KT P6SM SKC
     FM092100 14006KT P6SM SKC=



000
FTUS45 KREV 081724
TAFRNO
TAF
KRNO 081724Z 0818/0918 VRB03KT P6SM SKC
     FM082200 09006KT P6SM SKC
     FM090200 VRB03KT P6SM SKC=



000
FTUS45 KREV 081724
TAFRNO
TAF
KRNO 081724Z 0818/0918 VRB03KT P6SM SKC
     FM082200 09006KT P6SM SKC
     FM090200 VRB03KT P6SM SKC=



000
FTUS45 KREV 081724
TAFRNO
TAF
KRNO 081724Z 0818/0918 VRB03KT P6SM SKC
     FM082200 09006KT P6SM SKC
     FM090200 VRB03KT P6SM SKC=



000
FTUS45 KREV 081131
TAFRNO
TAF
KRNO 081131Z 0812/0912 VRB03KT P6SM SKC
     FM082200 09006KT P6SM SKC
     FM090200 VRB03KT P6SM SKC=



000
FTUS45 KREV 081120
TAFRNO
TAF
KRNO 081120Z 0812/0912 VRB03KT P6SM SKC
     FM082200 09008KT P6SM SKC=



000
FTUS45 KREV 081120
TAFRNO
TAF
KRNO 081120Z 0812/0912 VRB03KT P6SM SKC
     FM082200 09008KT P6SM SKC=



000
FTUS45 KREV 081120
TAFRNO
TAF
KRNO 081120Z 0812/0912 VRB03KT P6SM SKC
     FM082200 09008KT P6SM SKC=



000
FTUS45 KREV 080603 RRA
TAFRNO
TAF
KRNO 080603Z 0806/0906 VRB03KT P6SM SKC
     FM082200 09008KT P6SM SKC=



000
FTUS45 KREV 072320
TAFRNO
TAF
KRNO 072320Z 0800/0824 09008KT P6SM SKC
     FM080300 VRB03KT P6SM SKC
     FM082200 09008KT P6SM SKC=



000
FTUS45 KREV 071720
TAFRNO
TAF
KRNO 071720Z 0718/0818 VRB03KT P6SM SKC
     FM072200 08005KT P6SM SKC
     FM080300 VRB03KT P6SM SKC=



    US Dept of Commerce
    National Oceanic and Atmospheric Administration
    National Weather Service
    1325 East West Highway
    Silver Spring, MD 20910
    Page Author: NWS Internet Services Team
Disclaimer
Information Quality
Credits
Glossary
Privacy Policy
Freedom of Information Act (FOIA)
About Us
Career Opportunities